sensor_id;sensor_type;location;lat;lon;timestamp;P1;durP1;ratioP1;P2;durP2;ratioP2
76729;SDS011;65653;53.106;18.046;2023-03-29T00:01:26;11.90;;;4.10;;
76729;SDS011;65653;53.106;18.046;2023-03-29T00:03:56;9.90;;;3.30;;
76729;SDS011;65653;53.106;18.046;2023-03-29T00:06:22;7.10;;;2.80;;
76729;SDS011;65653;53.106;18.046;2023-03-29T00:08:49;8.90;;;3.50;;
76729;SDS011;65653;53.106;18.046;2023-03-29T00:11:20;6.40;;;3.00;;
76729;SDS011;65653;53.106;18.046;2023-03-29T00:13:48;7.00;;;2.90;;
76729;SDS011;65653;53.106;18.046;2023-03-29T00:16:14;9.20;;;2.70;;
76729;SDS011;65653;53.106;18.046;2023-03-29T00:18:41;10.40;;;3.80;;
76729;SDS011;65653;53.106;18.046;2023-03-29T00:21:06;13.40;;;3.90;;
76729;SDS011;65653;53.106;18.046;2023-03-29T00:23:33;5.70;;;2.40;;
76729;SDS011;65653;53.106;18.046;2023-03-29T00:25:59;11.70;;;4.30;;
76729;SDS011;65653;53.106;18.046;2023-03-29T00:28:25;7.90;;;2.80;;
76729;SDS011;65653;53.106;18.046;2023-03-29T00:30:51;9.70;;;3.00;;
76729;SDS011;65653;53.106;18.046;2023-03-29T00:33:18;9.60;;;3.30;;
76729;SDS011;65653;53.106;18.046;2023-03-29T00:35:47;11.30;;;3.50;;
76729;SDS011;65653;53.106;18.046;2023-03-29T00:38:14;7.00;;;3.10;;
76729;SDS011;65653;53.106;18.046;2023-03-29T00:40:41;7.70;;;3.30;;
76729;SDS011;65653;53.106;18.046;2023-03-29T00:43:11;8.60;;;3.70;;
76729;SDS011;65653;53.106;18.046;2023-03-29T00:45:39;10.10;;;2.70;;
76729;SDS011;65653;53.106;18.046;2023-03-29T00:48:06;9.60;;;4.10;;
76729;SDS011;65653;53.106;18.046;2023-03-29T00:50:42;7.30;;;3.20;;
76729;SDS011;65653;53.106;18.046;2023-03-29T00:58:27;9.10;;;2.90;;
76729;SDS011;65653;53.106;18.046;2023-03-29T01:01:02;7.30;;;2.60;;
76729;SDS011;65653;53.106;18.046;2023-03-29T01:03:36;7.70;;;2.60;;
76729;SDS011;65653;53.106;18.046;2023-03-29T01:06:11;3.70;;;1.30;;
76729;SDS011;65653;53.106;18.046;2023-03-29T01:08:42;10.90;;;2.30;;
76729;SDS011;65653;53.106;18.046;2023-03-29T01:11:20;7.70;;;3.00;;
76729;SDS011;65653;53.106;18.046;2023-03-29T01:16:25;6.10;;;2.20;;
76729;SDS011;65653;53.106;18.046;2023-03-29T01:18:53;6.40;;;2.90;;
76729;SDS011;65653;53.106;18.046;2023-03-29T01:22:03;10.40;;;3.50;;
76729;SDS011;65653;53.106;18.046;2023-03-29T01:36:09;9.20;;;3.00;;
76729;SDS011;65653;53.106;18.046;2023-03-29T01:38:43;6.60;;;3.00;;
76729;SDS011;65653;53.106;18.046;2023-03-29T01:41:14;8.40;;;2.70;;
76729;SDS011;65653;53.106;18.046;2023-03-29T01:43:44;6.40;;;2.20;;
76729;SDS011;65653;53.106;18.046;2023-03-29T01:49:01;8.30;;;3.20;;
76729;SDS011;65653;53.106;18.046;2023-03-29T01:51:43;12.00;;;3.80;;
76729;SDS011;65653;53.106;18.046;2023-03-29T01:54:18;13.50;;;4.10;;
76729;SDS011;65653;53.106;18.046;2023-03-29T01:56:50;10.30;;;3.00;;
76729;SDS011;65653;53.106;18.046;2023-03-29T01:59:18;11.00;;;3.70;;
76729;SDS011;65653;53.106;18.046;2023-03-29T02:01:48;9.90;;;3.40;;
76729;SDS011;65653;53.106;18.046;2023-03-29T02:04:19;10.00;;;2.70;;
76729;SDS011;65653;53.106;18.046;2023-03-29T02:09:21;9.60;;;3.00;;
76729;SDS011;65653;53.106;18.046;2023-03-29T02:11:48;8.40;;;3.40;;
76729;SDS011;65653;53.106;18.046;2023-03-29T02:14:16;8.00;;;3.20;;
76729;SDS011;65653;53.106;18.046;2023-03-29T02:16:42;9.60;;;3.40;;
76729;SDS011;65653;53.106;18.046;2023-03-29T02:19:10;9.40;;;3.00;;
76729;SDS011;65653;53.106;18.046;2023-03-29T02:21:46;8.90;;;3.40;;
76729;SDS011;65653;53.106;18.046;2023-03-29T02:24:20;6.60;;;3.30;;
76729;SDS011;65653;53.106;18.046;2023-03-29T02:26:49;8.90;;;3.30;;
76729;SDS011;65653;53.106;18.046;2023-03-29T02:29:15;6.40;;;3.20;;
76729;SDS011;65653;53.106;18.046;2023-03-29T02:31:43;9.90;;;3.30;;
76729;SDS011;65653;53.106;18.046;2023-03-29T02:34:45;8.10;;;3.30;;
76729;SDS011;65653;53.106;18.046;2023-03-29T02:37:17;7.80;;;3.10;;
76729;SDS011;65653;53.106;18.046;2023-03-29T02:39:46;7.00;;;3.00;;
76729;SDS011;65653;53.106;18.046;2023-03-29T02:42:14;12.20;;;3.90;;
76729;SDS011;65653;53.106;18.046;2023-03-29T02:44:45;7.80;;;3.80;;
76729;SDS011;65653;53.106;18.046;2023-03-29T02:47:14;9.50;;;3.20;;
76729;SDS011;65653;53.106;18.046;2023-03-29T02:50:03;8.50;;;3.20;;
76729;SDS011;65653;53.106;18.046;2023-03-29T02:52:32;10.00;;;3.60;;
76729;SDS011;65653;53.106;18.046;2023-03-29T02:55:01;8.80;;;3.80;;
76729;SDS011;65653;53.106;18.046;2023-03-29T02:57:32;9.80;;;4.00;;
76729;SDS011;65653;53.106;18.046;2023-03-29T03:00:00;9.90;;;3.90;;
76729;SDS011;65653;53.106;18.046;2023-03-29T03:02:26;6.90;;;3.30;;
76729;SDS011;65653;53.106;18.046;2023-03-29T03:04:52;12.00;;;3.90;;
76729;SDS011;65653;53.106;18.046;2023-03-29T03:07:18;9.20;;;3.60;;
76729;SDS011;65653;53.106;18.046;2023-03-29T03:09:44;8.70;;;3.80;;
76729;SDS011;65653;53.106;18.046;2023-03-29T03:12:12;8.20;;;3.20;;
76729;SDS011;65653;53.106;18.046;2023-03-29T03:14:38;7.90;;;3.20;;
76729;SDS011;65653;53.106;18.046;2023-03-29T03:17:05;7.60;;;3.50;;
76729;SDS011;65653;53.106;18.046;2023-03-29T03:19:31;7.40;;;3.40;;
76729;SDS011;65653;53.106;18.046;2023-03-29T03:21:57;8.40;;;2.90;;
76729;SDS011;65653;53.106;18.046;2023-03-29T03:24:24;10.90;;;4.00;;
76729;SDS011;65653;53.106;18.046;2023-03-29T03:26:50;13.70;;;5.10;;
76729;SDS011;65653;53.106;18.046;2023-03-29T03:29:15;11.80;;;4.30;;
76729;SDS011;65653;53.106;18.046;2023-03-29T03:31:41;6.30;;;2.80;;
76729;SDS011;65653;53.106;18.046;2023-03-29T03:34:07;10.30;;;3.40;;
76729;SDS011;65653;53.106;18.046;2023-03-29T03:36:33;10.00;;;4.00;;
76729;SDS011;65653;53.106;18.046;2023-03-29T03:39:00;9.40;;;4.10;;
76729;SDS011;65653;53.106;18.046;2023-03-29T03:41:27;5.80;;;2.60;;
76729;SDS011;65653;53.106;18.046;2023-03-29T03:43:52;7.90;;;3.00;;
76729;SDS011;65653;53.106;18.046;2023-03-29T03:46:19;7.60;;;2.70;;
76729;SDS011;65653;53.106;18.046;2023-03-29T03:48:48;5.10;;;2.20;;
76729;SDS011;65653;53.106;18.046;2023-03-29T03:51:14;7.70;;;2.90;;
76729;SDS011;65653;53.106;18.046;2023-03-29T03:53:40;4.80;;;2.00;;
76729;SDS011;65653;53.106;18.046;2023-03-29T03:56:06;14.90;;;3.60;;
76729;SDS011;65653;53.106;18.046;2023-03-29T03:58:35;18.30;;;4.30;;
76729;SDS011;65653;53.106;18.046;2023-03-29T04:01:02;12.90;;;5.00;;
76729;SDS011;65653;53.106;18.046;2023-03-29T04:03:29;14.40;;;5.50;;
76729;SDS011;65653;53.106;18.046;2023-03-29T04:05:58;12.30;;;5.20;;
76729;SDS011;65653;53.106;18.046;2023-03-29T04:08:26;12.60;;;5.10;;
76729;SDS011;65653;53.106;18.046;2023-03-29T04:10:52;12.80;;;5.00;;
76729;SDS011;65653;53.106;18.046;2023-03-29T04:13:20;18.90;;;5.20;;
76729;SDS011;65653;53.106;18.046;2023-03-29T04:15:47;16.50;;;5.60;;
76729;SDS011;65653;53.106;18.046;2023-03-29T04:18:21;19.40;;;5.80;;
76729;SDS011;65653;53.106;18.046;2023-03-29T04:20:48;19.00;;;6.10;;
76729;SDS011;65653;53.106;18.046;2023-03-29T04:23:14;16.70;;;4.90;;
76729;SDS011;65653;53.106;18.046;2023-03-29T04:25:40;12.30;;;5.00;;
76729;SDS011;65653;53.106;18.046;2023-03-29T04:28:06;16.80;;;5.10;;
76729;SDS011;65653;53.106;18.046;2023-03-29T04:30:34;13.20;;;3.80;;
76729;SDS011;65653;53.106;18.046;2023-03-29T04:33:00;14.30;;;4.80;;
76729;SDS011;65653;53.106;18.046;2023-03-29T04:35:26;13.70;;;4.70;;
76729;SDS011;65653;53.106;18.046;2023-03-29T04:37:52;11.80;;;4.40;;
76729;SDS011;65653;53.106;18.046;2023-03-29T04:40:19;13.00;;;4.70;;
76729;SDS011;65653;53.106;18.046;2023-03-29T04:42:45;12.30;;;4.80;;
76729;SDS011;65653;53.106;18.046;2023-03-29T04:45:12;10.80;;;3.60;;
76729;SDS011;65653;53.106;18.046;2023-03-29T04:47:39;11.50;;;4.00;;
76729;SDS011;65653;53.106;18.046;2023-03-29T04:50:06;12.70;;;4.60;;
76729;SDS011;65653;53.106;18.046;2023-03-29T04:52:32;13.40;;;3.10;;
76729;SDS011;65653;53.106;18.046;2023-03-29T04:54:59;12.70;;;4.40;;
76729;SDS011;65653;53.106;18.046;2023-03-29T04:57:26;9.70;;;3.80;;
76729;SDS011;65653;53.106;18.046;2023-03-29T04:59:52;11.20;;;4.20;;
76729;SDS011;65653;53.106;18.046;2023-03-29T05:02:18;9.70;;;3.50;;
76729;SDS011;65653;53.106;18.046;2023-03-29T05:04:45;12.10;;;4.20;;
76729;SDS011;65653;53.106;18.046;2023-03-29T05:07:11;12.40;;;4.20;;
76729;SDS011;65653;53.106;18.046;2023-03-29T05:09:40;9.10;;;4.30;;
76729;SDS011;65653;53.106;18.046;2023-03-29T05:12:06;8.20;;;3.00;;
76729;SDS011;65653;53.106;18.046;2023-03-29T05:14:32;13.20;;;4.30;;
76729;SDS011;65653;53.106;18.046;2023-03-29T05:16:58;9.80;;;4.30;;
76729;SDS011;65653;53.106;18.046;2023-03-29T05:19:25;8.40;;;4.00;;
76729;SDS011;65653;53.106;18.046;2023-03-29T05:21:52;8.50;;;4.00;;
76729;SDS011;65653;53.106;18.046;2023-03-29T05:24:18;10.60;;;4.40;;
76729;SDS011;65653;53.106;18.046;2023-03-29T05:26:45;10.40;;;4.10;;
76729;SDS011;65653;53.106;18.046;2023-03-29T05:29:16;12.30;;;4.70;;
76729;SDS011;65653;53.106;18.046;2023-03-29T05:31:42;12.10;;;4.60;;
76729;SDS011;65653;53.106;18.046;2023-03-29T05:34:09;7.50;;;3.40;;
76729;SDS011;65653;53.106;18.046;2023-03-29T05:36:36;12.40;;;4.30;;
76729;SDS011;65653;53.106;18.046;2023-03-29T05:39:03;13.30;;;4.30;;
76729;SDS011;65653;53.106;18.046;2023-03-29T05:41:31;12.40;;;4.10;;
76729;SDS011;65653;53.106;18.046;2023-03-29T05:43:58;18.30;;;4.80;;
76729;SDS011;65653;53.106;18.046;2023-03-29T05:46:24;11.00;;;4.70;;
76729;SDS011;65653;53.106;18.046;2023-03-29T05:48:50;13.60;;;5.00;;
76729;SDS011;65653;53.106;18.046;2023-03-29T05:51:16;15.60;;;5.60;;
76729;SDS011;65653;53.106;18.046;2023-03-29T05:53:43;14.10;;;4.60;;
76729;SDS011;65653;53.106;18.046;2023-03-29T05:56:10;9.30;;;3.60;;
76729;SDS011;65653;53.106;18.046;2023-03-29T05:58:36;8.50;;;3.80;;
76729;SDS011;65653;53.106;18.046;2023-03-29T06:01:03;11.70;;;4.10;;
76729;SDS011;65653;53.106;18.046;2023-03-29T06:03:35;6.50;;;2.30;;
76729;SDS011;65653;53.106;18.046;2023-03-29T06:06:03;10.10;;;4.10;;
76729;SDS011;65653;53.106;18.046;2023-03-29T06:08:29;5.10;;;2.70;;
76729;SDS011;65653;53.106;18.046;2023-03-29T06:11:00;9.80;;;4.10;;
76729;SDS011;65653;53.106;18.046;2023-03-29T06:13:27;11.30;;;3.90;;
76729;SDS011;65653;53.106;18.046;2023-03-29T06:15:54;12.20;;;3.90;;
76729;SDS011;65653;53.106;18.046;2023-03-29T06:18:20;7.00;;;3.60;;
76729;SDS011;65653;53.106;18.046;2023-03-29T06:20:48;8.40;;;3.20;;
76729;SDS011;65653;53.106;18.046;2023-03-29T06:23:18;10.10;;;4.50;;
76729;SDS011;65653;53.106;18.046;2023-03-29T06:25:45;10.60;;;4.30;;
76729;SDS011;65653;53.106;18.046;2023-03-29T06:28:12;10.30;;;4.60;;
76729;SDS011;65653;53.106;18.046;2023-03-29T06:30:39;7.50;;;3.70;;
76729;SDS011;65653;53.106;18.046;2023-03-29T06:33:07;8.10;;;2.80;;
76729;SDS011;65653;53.106;18.046;2023-03-29T06:35:34;10.70;;;4.00;;
76729;SDS011;65653;53.106;18.046;2023-03-29T06:38:01;8.30;;;3.10;;
76729;SDS011;65653;53.106;18.046;2023-03-29T06:40:29;9.00;;;3.90;;
76729;SDS011;65653;53.106;18.046;2023-03-29T06:42:55;7.50;;;2.90;;
76729;SDS011;65653;53.106;18.046;2023-03-29T06:45:23;6.60;;;2.60;;
76729;SDS011;65653;53.106;18.046;2023-03-29T06:47:50;8.30;;;2.70;;
76729;SDS011;65653;53.106;18.046;2023-03-29T06:50:16;5.70;;;1.90;;
76729;SDS011;65653;53.106;18.046;2023-03-29T06:52:43;5.50;;;2.00;;
76729;SDS011;65653;53.106;18.046;2023-03-29T06:55:09;5.10;;;1.90;;
76729;SDS011;65653;53.106;18.046;2023-03-29T06:57:36;4.90;;;1.70;;
76729;SDS011;65653;53.106;18.046;2023-03-29T07:00:03;4.60;;;1.90;;
76729;SDS011;65653;53.106;18.046;2023-03-29T07:02:56;4.40;;;1.90;;
76729;SDS011;65653;53.106;18.046;2023-03-29T07:05:27;5.00;;;1.80;;
76729;SDS011;65653;53.106;18.046;2023-03-29T07:07:53;6.00;;;2.20;;
76729;SDS011;65653;53.106;18.046;2023-03-29T07:10:25;3.60;;;1.80;;
76729;SDS011;65653;53.106;18.046;2023-03-29T07:12:59;3.60;;;1.70;;
76729;SDS011;65653;53.106;18.046;2023-03-29T07:15:26;3.30;;;1.60;;
76729;SDS011;65653;53.106;18.046;2023-03-29T07:17:52;6.60;;;2.30;;
76729;SDS011;65653;53.106;18.046;2023-03-29T07:20:19;5.20;;;2.40;;
76729;SDS011;65653;53.106;18.046;2023-03-29T07:22:48;8.60;;;3.40;;
76729;SDS011;65653;53.106;18.046;2023-03-29T07:25:15;4.80;;;2.10;;
76729;SDS011;65653;53.106;18.046;2023-03-29T07:27:45;5.20;;;2.00;;
76729;SDS011;65653;53.106;18.046;2023-03-29T07:30:16;5.80;;;2.90;;
76729;SDS011;65653;53.106;18.046;2023-03-29T07:32:49;11.00;;;3.10;;
76729;SDS011;65653;53.106;18.046;2023-03-29T07:35:21;5.20;;;2.40;;
76729;SDS011;65653;53.106;18.046;2023-03-29T07:37:48;5.40;;;2.20;;
76729;SDS011;65653;53.106;18.046;2023-03-29T07:40:15;11.80;;;3.70;;
76729;SDS011;65653;53.106;18.046;2023-03-29T07:42:45;6.70;;;2.70;;
76729;SDS011;65653;53.106;18.046;2023-03-29T07:45:12;6.20;;;2.50;;
76729;SDS011;65653;53.106;18.046;2023-03-29T07:47:41;7.70;;;3.30;;
76729;SDS011;65653;53.106;18.046;2023-03-29T07:50:17;5.20;;;2.40;;
76729;SDS011;65653;53.106;18.046;2023-03-29T07:52:46;5.70;;;3.30;;
76729;SDS011;65653;53.106;18.046;2023-03-29T07:55:12;6.80;;;3.30;;
76729;SDS011;65653;53.106;18.046;2023-03-29T07:57:39;5.90;;;2.50;;
76729;SDS011;65653;53.106;18.046;2023-03-29T08:00:06;5.70;;;1.80;;
76729;SDS011;65653;53.106;18.046;2023-03-29T08:02:36;4.20;;;2.20;;
76729;SDS011;65653;53.106;18.046;2023-03-29T08:05:02;7.10;;;3.10;;
76729;SDS011;65653;53.106;18.046;2023-03-29T08:07:31;3.90;;;2.20;;
76729;SDS011;65653;53.106;18.046;2023-03-29T08:09:57;6.20;;;3.20;;
76729;SDS011;65653;53.106;18.046;2023-03-29T08:12:23;5.90;;;2.80;;
76729;SDS011;65653;53.106;18.046;2023-03-29T08:14:49;6.20;;;3.00;;
76729;SDS011;65653;53.106;18.046;2023-03-29T08:17:14;6.30;;;2.90;;
76729;SDS011;65653;53.106;18.046;2023-03-29T08:19:40;5.10;;;2.40;;
76729;SDS011;65653;53.106;18.046;2023-03-29T08:22:06;4.30;;;2.30;;
76729;SDS011;65653;53.106;18.046;2023-03-29T08:24:32;3.10;;;1.80;;
76729;SDS011;65653;53.106;18.046;2023-03-29T08:26:58;3.90;;;2.30;;
76729;SDS011;65653;53.106;18.046;2023-03-29T08:29:24;4.20;;;2.50;;
76729;SDS011;65653;53.106;18.046;2023-03-29T08:31:50;4.00;;;2.00;;
76729;SDS011;65653;53.106;18.046;2023-03-29T08:34:16;3.10;;;1.70;;
76729;SDS011;65653;53.106;18.046;2023-03-29T08:36:42;2.60;;;1.30;;
76729;SDS011;65653;53.106;18.046;2023-03-29T08:39:08;3.00;;;1.80;;
76729;SDS011;65653;53.106;18.046;2023-03-29T08:49:34;3.50;;;2.00;;
76729;SDS011;65653;53.106;18.046;2023-03-29T08:52:04;4.60;;;2.20;;
76729;SDS011;65653;53.106;18.046;2023-03-29T08:54:39;4.70;;;2.20;;
76729;SDS011;65653;53.106;18.046;2023-03-29T09:00:00;3.00;;;1.70;;
76729;SDS011;65653;53.106;18.046;2023-03-29T09:02:30;3.20;;;1.50;;
76729;SDS011;65653;53.106;18.046;2023-03-29T09:05:04;4.40;;;2.10;;
76729;SDS011;65653;53.106;18.046;2023-03-29T09:07:39;2.00;;;1.20;;
76729;SDS011;65653;53.106;18.046;2023-03-29T09:10:07;3.50;;;2.00;;
76729;SDS011;65653;53.106;18.046;2023-03-29T09:23:08;3.60;;;1.90;;
76729;SDS011;65653;53.106;18.046;2023-03-29T09:35:46;4.00;;;1.60;;
76729;SDS011;65653;53.106;18.046;2023-03-29T09:38:21;5.20;;;2.20;;
76729;SDS011;65653;53.106;18.046;2023-03-29T09:40:49;4.60;;;2.00;;
76729;SDS011;65653;53.106;18.046;2023-03-29T09:43:38;3.80;;;2.20;;
76729;SDS011;65653;53.106;18.046;2023-03-29T09:46:12;4.00;;;1.90;;
76729;SDS011;65653;53.106;18.046;2023-03-29T09:48:44;4.20;;;2.20;;
76729;SDS011;65653;53.106;18.046;2023-03-29T09:51:12;5.30;;;2.20;;
76729;SDS011;65653;53.106;18.046;2023-03-29T09:53:39;4.00;;;2.20;;
76729;SDS011;65653;53.106;18.046;2023-03-29T09:56:05;5.10;;;2.40;;
76729;SDS011;65653;53.106;18.046;2023-03-29T09:58:32;3.20;;;1.90;;
76729;SDS011;65653;53.106;18.046;2023-03-29T10:01:01;3.80;;;2.10;;
76729;SDS011;65653;53.106;18.046;2023-03-29T10:03:38;3.20;;;2.30;;
76729;SDS011;65653;53.106;18.046;2023-03-29T10:06:05;5.60;;;2.80;;
76729;SDS011;65653;53.106;18.046;2023-03-29T10:11:06;2.80;;;1.70;;
76729;SDS011;65653;53.106;18.046;2023-03-29T10:13:42;2.00;;;1.30;;
76729;SDS011;65653;53.106;18.046;2023-03-29T10:16:21;3.70;;;2.10;;
76729;SDS011;65653;53.106;18.046;2023-03-29T10:18:55;3.30;;;2.00;;
76729;SDS011;65653;53.106;18.046;2023-03-29T10:21:20;3.10;;;1.60;;
76729;SDS011;65653;53.106;18.046;2023-03-29T10:23:47;3.50;;;1.90;;
76729;SDS011;65653;53.106;18.046;2023-03-29T10:26:26;3.70;;;1.80;;
76729;SDS011;65653;53.106;18.046;2023-03-29T10:28:56;3.90;;;2.00;;
76729;SDS011;65653;53.106;18.046;2023-03-29T10:31:25;3.60;;;2.40;;
76729;SDS011;65653;53.106;18.046;2023-03-29T10:33:56;4.70;;;2.30;;
76729;SDS011;65653;53.106;18.046;2023-03-29T10:36:26;3.90;;;1.80;;
76729;SDS011;65653;53.106;18.046;2023-03-29T10:38:53;4.00;;;2.30;;
76729;SDS011;65653;53.106;18.046;2023-03-29T10:41:22;3.80;;;2.30;;
76729;SDS011;65653;53.106;18.046;2023-03-29T10:43:51;3.00;;;2.00;;
76729;SDS011;65653;53.106;18.046;2023-03-29T10:48:54;3.60;;;1.90;;
76729;SDS011;65653;53.106;18.046;2023-03-29T10:51:22;3.10;;;1.80;;
76729;SDS011;65653;53.106;18.046;2023-03-29T10:53:52;2.90;;;1.70;;
76729;SDS011;65653;53.106;18.046;2023-03-29T10:59:19;2.50;;;1.60;;
76729;SDS011;65653;53.106;18.046;2023-03-29T11:10:04;3.00;;;1.60;;
76729;SDS011;65653;53.106;18.046;2023-03-29T11:34:55;5.00;;;1.70;;
76729;SDS011;65653;53.106;18.046;2023-03-29T11:40:15;4.90;;;2.10;;
76729;SDS011;65653;53.106;18.046;2023-03-29T11:42:54;3.60;;;2.00;;
76729;SDS011;65653;53.106;18.046;2023-03-29T11:45:28;3.60;;;2.20;;
76729;SDS011;65653;53.106;18.046;2023-03-29T11:53:04;2.90;;;1.50;;
76729;SDS011;65653;53.106;18.046;2023-03-29T11:55:37;3.00;;;1.60;;
76729;SDS011;65653;53.106;18.046;2023-03-29T11:58:09;2.80;;;1.50;;
76729;SDS011;65653;53.106;18.046;2023-03-29T12:00:49;3.50;;;1.60;;
76729;SDS011;65653;53.106;18.046;2023-03-29T12:05:57;2.70;;;1.30;;
76729;SDS011;65653;53.106;18.046;2023-03-29T12:08:31;4.40;;;1.40;;
76729;SDS011;65653;53.106;18.046;2023-03-29T12:11:03;2.00;;;1.20;;
76729;SDS011;65653;53.106;18.046;2023-03-29T12:13:43;2.90;;;2.00;;
76729;SDS011;65653;53.106;18.046;2023-03-29T12:16:19;4.60;;;1.90;;
76729;SDS011;65653;53.106;18.046;2023-03-29T12:18:52;6.10;;;2.40;;
76729;SDS011;65653;53.106;18.046;2023-03-29T12:21:22;3.10;;;1.70;;
76729;SDS011;65653;53.106;18.046;2023-03-29T12:23:51;2.90;;;1.60;;
76729;SDS011;65653;53.106;18.046;2023-03-29T12:32:13;3.60;;;2.00;;
76729;SDS011;65653;53.106;18.046;2023-03-29T12:35:16;3.10;;;1.60;;
76729;SDS011;65653;53.106;18.046;2023-03-29T12:40:45;3.30;;;1.60;;
76729;SDS011;65653;53.106;18.046;2023-03-29T12:43:26;3.80;;;1.50;;
76729;SDS011;65653;53.106;18.046;2023-03-29T12:48:31;4.40;;;1.80;;
76729;SDS011;65653;53.106;18.046;2023-03-29T12:50:58;3.90;;;1.80;;
76729;SDS011;65653;53.106;18.046;2023-03-29T12:53:34;3.90;;;2.10;;
76729;SDS011;65653;53.106;18.046;2023-03-29T12:58:40;2.70;;;1.70;;
76729;SDS011;65653;53.106;18.046;2023-03-29T13:01:25;2.90;;;1.90;;
76729;SDS011;65653;53.106;18.046;2023-03-29T13:04:08;4.30;;;2.00;;
76729;SDS011;65653;53.106;18.046;2023-03-29T13:09:31;2.60;;;1.70;;
76729;SDS011;65653;53.106;18.046;2023-03-29T13:12:26;3.60;;;1.80;;
76729;SDS011;65653;53.106;18.046;2023-03-29T13:14:59;5.00;;;1.80;;
76729;SDS011;65653;53.106;18.046;2023-03-29T13:17:39;4.00;;;2.00;;
76729;SDS011;65653;53.106;18.046;2023-03-29T13:25:31;5.80;;;2.60;;
76729;SDS011;65653;53.106;18.046;2023-03-29T13:28:10;4.00;;;1.80;;
76729;SDS011;65653;53.106;18.046;2023-03-29T13:33:58;4.90;;;2.50;;
76729;SDS011;65653;53.106;18.046;2023-03-29T13:39:18;4.00;;;2.00;;
76729;SDS011;65653;53.106;18.046;2023-03-29T13:41:49;7.10;;;2.40;;
76729;SDS011;65653;53.106;18.046;2023-03-29T13:46:47;3.90;;;1.90;;
76729;SDS011;65653;53.106;18.046;2023-03-29T13:49:25;3.40;;;2.00;;
76729;SDS011;65653;53.106;18.046;2023-03-29T13:52:02;4.20;;;2.50;;
76729;SDS011;65653;53.106;18.046;2023-03-29T13:54:32;5.80;;;2.70;;
76729;SDS011;65653;53.106;18.046;2023-03-29T13:57:36;3.30;;;2.10;;
76729;SDS011;65653;53.106;18.046;2023-03-29T14:00:22;3.90;;;2.10;;
76729;SDS011;65653;53.106;18.046;2023-03-29T14:03:11;6.40;;;1.90;;
76729;SDS011;65653;53.106;18.046;2023-03-29T14:05:43;4.50;;;2.40;;
76729;SDS011;65653;53.106;18.046;2023-03-29T14:08:19;4.30;;;2.30;;
76729;SDS011;65653;53.106;18.046;2023-03-29T14:10:49;5.10;;;2.30;;
76729;SDS011;65653;53.106;18.046;2023-03-29T14:13:18;3.20;;;1.70;;
76729;SDS011;65653;53.106;18.046;2023-03-29T14:18:20;6.00;;;3.10;;
76729;SDS011;65653;53.106;18.046;2023-03-29T14:20:49;6.70;;;3.00;;
76729;SDS011;65653;53.106;18.046;2023-03-29T14:23:20;4.10;;;2.50;;
76729;SDS011;65653;53.106;18.046;2023-03-29T14:25:49;3.70;;;1.80;;
76729;SDS011;65653;53.106;18.046;2023-03-29T14:30:44;4.00;;;2.40;;
76729;SDS011;65653;53.106;18.046;2023-03-29T14:33:31;4.80;;;2.50;;
76729;SDS011;65653;53.106;18.046;2023-03-29T14:36:00;4.50;;;2.50;;
76729;SDS011;65653;53.106;18.046;2023-03-29T14:38:30;6.00;;;2.60;;
76729;SDS011;65653;53.106;18.046;2023-03-29T14:40:57;3.10;;;2.00;;
76729;SDS011;65653;53.106;18.046;2023-03-29T14:43:25;5.40;;;2.60;;
76729;SDS011;65653;53.106;18.046;2023-03-29T14:45:55;6.90;;;2.00;;
76729;SDS011;65653;53.106;18.046;2023-03-29T14:48:23;4.20;;;2.40;;
76729;SDS011;65653;53.106;18.046;2023-03-29T14:50:49;4.30;;;2.10;;
76729;SDS011;65653;53.106;18.046;2023-03-29T14:53:17;7.50;;;2.60;;
76729;SDS011;65653;53.106;18.046;2023-03-29T14:55:47;6.40;;;3.20;;
76729;SDS011;65653;53.106;18.046;2023-03-29T15:00:57;8.40;;;3.30;;
76729;SDS011;65653;53.106;18.046;2023-03-29T15:03:50;7.00;;;3.20;;
76729;SDS011;65653;53.106;18.046;2023-03-29T15:06:39;4.90;;;2.20;;
76729;SDS011;65653;53.106;18.046;2023-03-29T15:09:08;2.40;;;1.80;;
76729;SDS011;65653;53.106;18.046;2023-03-29T15:11:48;6.00;;;2.70;;
76729;SDS011;65653;53.106;18.046;2023-03-29T15:14:15;10.30;;;5.00;;
76729;SDS011;65653;53.106;18.046;2023-03-29T15:16:44;5.20;;;2.90;;
76729;SDS011;65653;53.106;18.046;2023-03-29T15:19:23;5.70;;;2.90;;
76729;SDS011;65653;53.106;18.046;2023-03-29T15:21:50;4.50;;;2.20;;
76729;SDS011;65653;53.106;18.046;2023-03-29T15:24:21;4.10;;;2.70;;
76729;SDS011;65653;53.106;18.046;2023-03-29T15:27:02;5.00;;;2.50;;
76729;SDS011;65653;53.106;18.046;2023-03-29T15:29:42;5.00;;;2.50;;
76729;SDS011;65653;53.106;18.046;2023-03-29T15:32:32;3.70;;;2.60;;
76729;SDS011;65653;53.106;18.046;2023-03-29T15:35:00;5.60;;;2.80;;
76729;SDS011;65653;53.106;18.046;2023-03-29T15:37:27;5.80;;;3.40;;
76729;SDS011;65653;53.106;18.046;2023-03-29T15:39:53;6.80;;;3.90;;
76729;SDS011;65653;53.106;18.046;2023-03-29T15:42:20;6.90;;;3.50;;
76729;SDS011;65653;53.106;18.046;2023-03-29T15:44:47;5.70;;;3.40;;
76729;SDS011;65653;53.106;18.046;2023-03-29T15:47:13;8.60;;;3.40;;
76729;SDS011;65653;53.106;18.046;2023-03-29T15:49:42;7.50;;;3.30;;
76729;SDS011;65653;53.106;18.046;2023-03-29T15:52:11;3.40;;;2.10;;
76729;SDS011;65653;53.106;18.046;2023-03-29T15:54:37;6.30;;;2.80;;
76729;SDS011;65653;53.106;18.046;2023-03-29T15:57:09;10.50;;;5.10;;
76729;SDS011;65653;53.106;18.046;2023-03-29T15:59:38;5.20;;;2.90;;
76729;SDS011;65653;53.106;18.046;2023-03-29T16:02:04;5.20;;;3.10;;
76729;SDS011;65653;53.106;18.046;2023-03-29T16:04:32;6.40;;;3.50;;
76729;SDS011;65653;53.106;18.046;2023-03-29T16:06:58;7.50;;;3.20;;
76729;SDS011;65653;53.106;18.046;2023-03-29T16:09:23;5.30;;;2.70;;
76729;SDS011;65653;53.106;18.046;2023-03-29T16:11:50;5.40;;;3.20;;
76729;SDS011;65653;53.106;18.046;2023-03-29T16:14:18;5.20;;;3.20;;
76729;SDS011;65653;53.106;18.046;2023-03-29T16:16:48;5.90;;;2.90;;
76729;SDS011;65653;53.106;18.046;2023-03-29T16:19:14;6.90;;;2.50;;
76729;SDS011;65653;53.106;18.046;2023-03-29T16:21:40;8.40;;;3.50;;
76729;SDS011;65653;53.106;18.046;2023-03-29T16:24:11;4.00;;;2.40;;
76729;SDS011;65653;53.106;18.046;2023-03-29T16:26:39;5.90;;;3.10;;
76729;SDS011;65653;53.106;18.046;2023-03-29T16:29:05;6.80;;;3.30;;
76729;SDS011;65653;53.106;18.046;2023-03-29T16:31:30;8.10;;;3.10;;
76729;SDS011;65653;53.106;18.046;2023-03-29T16:33:59;10.10;;;3.30;;
76729;SDS011;65653;53.106;18.046;2023-03-29T16:36:28;8.10;;;3.50;;
76729;SDS011;65653;53.106;18.046;2023-03-29T16:38:55;8.60;;;3.80;;
76729;SDS011;65653;53.106;18.046;2023-03-29T16:41:25;7.10;;;3.50;;
76729;SDS011;65653;53.106;18.046;2023-03-29T16:43:51;10.80;;;4.40;;
76729;SDS011;65653;53.106;18.046;2023-03-29T16:46:18;8.90;;;4.20;;
76729;SDS011;65653;53.106;18.046;2023-03-29T16:48:45;9.50;;;4.30;;
76729;SDS011;65653;53.106;18.046;2023-03-29T16:51:12;10.80;;;5.30;;
76729;SDS011;65653;53.106;18.046;2023-03-29T16:53:39;7.50;;;3.70;;
76729;SDS011;65653;53.106;18.046;2023-03-29T16:56:19;12.10;;;4.90;;
76729;SDS011;65653;53.106;18.046;2023-03-29T16:58:45;7.40;;;3.60;;
76729;SDS011;65653;53.106;18.046;2023-03-29T17:01:23;10.70;;;4.60;;
76729;SDS011;65653;53.106;18.046;2023-03-29T17:04:09;8.60;;;4.30;;
76729;SDS011;65653;53.106;18.046;2023-03-29T17:06:36;8.70;;;3.70;;
76729;SDS011;65653;53.106;18.046;2023-03-29T17:09:03;9.50;;;4.10;;
76729;SDS011;65653;53.106;18.046;2023-03-29T17:11:31;15.20;;;5.90;;